createdAt,value
2023-02-07T00:00:21.643Z,54.70
2023-02-07T00:00:53.993Z,55.63
2023-02-07T00:01:27.723Z,53.00
2023-02-07T00:02:00.039Z,54.60
2023-02-07T00:02:32.454Z,55.20
2023-02-07T00:03:04.941Z,56.70
2023-02-07T00:03:38.224Z,55.00
2023-02-07T00:04:10.683Z,50.73
2023-02-07T00:04:42.982Z,53.87
2023-02-07T00:05:16.488Z,53.20
2023-02-07T00:05:48.807Z,51.07
2023-02-07T00:06:28.669Z,52.57
2023-02-07T00:07:00.955Z,50.17
2023-02-07T00:07:33.267Z,52.03
2023-02-07T00:08:06.937Z,53.23
2023-02-07T00:08:40.563Z,52.83
2023-02-07T00:09:13.060Z,53.57
2023-02-07T00:09:45.382Z,54.67
2023-02-07T00:10:17.722Z,53.90
2023-02-07T00:10:50.048Z,54.40
2023-02-07T00:11:23.748Z,55.37
2023-02-07T00:11:56.100Z,55.17
2023-02-07T00:12:28.374Z,55.03
2023-02-07T00:13:00.824Z,53.37
2023-02-07T00:13:33.170Z,56.33
2023-02-07T00:14:05.504Z,54.07
2023-02-07T00:14:37.870Z,55.60
2023-02-07T00:15:10.450Z,52.93
2023-02-07T00:15:42.733Z,51.57
2023-02-07T00:16:15.312Z,52.50
2023-02-07T00:16:47.770Z,53.87
2023-02-07T00:17:20.164Z,55.47
2023-02-07T00:17:52.478Z,54.83
2023-02-07T00:18:25.148Z,56.07
2023-02-07T00:19:00.044Z,56.93
2023-02-07T00:19:32.584Z,56.07
2023-02-07T00:20:05.854Z,56.93
2023-02-07T00:20:38.170Z,58.43
2023-02-07T00:21:14.294Z,59.40
2023-02-07T00:21:46.586Z,58.50
2023-02-07T00:22:18.857Z,57.07
2023-02-07T00:22:51.698Z,56.53
2023-02-07T00:23:24.020Z,56.47
2023-02-07T00:23:57.219Z,53.97
2023-02-07T00:24:29.610Z,54.43
2023-02-07T00:25:01.906Z,57.43
2023-02-07T00:25:34.211Z,55.90
2023-02-07T00:26:07.966Z,55.17
2023-02-07T00:26:40.251Z,55.10
2023-02-07T00:27:12.662Z,55.57
2023-02-07T00:27:45.067Z,57.13
2023-02-07T00:28:17.510Z,56.67
2023-02-07T00:28:50.997Z,56.13
2023-02-07T00:29:23.404Z,54.50
2023-02-07T00:29:55.705Z,56.13
2023-02-07T00:30:28.152Z,56.10
2023-02-07T00:31:10.664Z,58.07
2023-02-07T00:31:43.262Z,60.27
2023-02-07T00:32:16.246Z,56.40
2023-02-07T00:32:48.574Z,55.53
2023-02-07T00:33:20.934Z,55.90
2023-02-07T00:33:56.699Z,55.43
2023-02-07T00:34:29.065Z,58.07
2023-02-07T00:35:03.644Z,58.03
2023-02-07T00:35:36.300Z,58.10
2023-02-07T00:36:13.110Z,58.80
2023-02-07T00:36:45.471Z,57.00
2023-02-07T00:37:18.131Z,56.03
2023-02-07T00:37:50.727Z,57.17
2023-02-07T00:38:23.029Z,55.77
2023-02-07T00:39:04.772Z,58.13
2023-02-07T00:39:38.430Z,59.13
2023-02-07T00:40:10.870Z,60.83
2023-02-07T00:40:43.141Z,56.23
2023-02-07T00:41:18.675Z,54.33
2023-02-07T00:41:51.111Z,55.73
2023-02-07T00:42:23.408Z,59.70
2023-02-07T00:42:55.772Z,57.17
2023-02-07T00:43:32.378Z,57.63
2023-02-07T00:44:05.296Z,56.43
2023-02-07T00:44:37.639Z,55.73
2023-02-07T00:45:09.926Z,55.77
2023-02-07T00:45:42.246Z,54.27
2023-02-07T00:46:15.840Z,58.87
2023-02-07T00:46:48.477Z,63.10
2023-02-07T00:47:20.794Z,63.73
2023-02-07T00:47:53.091Z,66.90
2023-02-07T00:48:26.639Z,69.63
2023-02-07T00:48:59.034Z,69.20
2023-02-07T00:49:31.375Z,66.80
2023-02-07T00:50:03.817Z,71.10
2023-02-07T00:50:36.179Z,72.77
2023-02-07T00:51:08.749Z,71.57
2023-02-07T00:51:41.051Z,71.60
2023-02-07T00:52:13.365Z,66.97
2023-02-07T00:52:45.638Z,63.27
2023-02-07T00:53:17.954Z,64.07
2023-02-07T00:53:50.267Z,61.70
2023-02-07T00:54:22.626Z,60.57
2023-02-07T00:54:54.931Z,62.37
2023-02-07T00:55:27.249Z,60.10
2023-02-07T00:55:59.825Z,59.10
2023-02-07T00:56:33.678Z,58.73
2023-02-07T00:57:06.012Z,57.43
2023-02-07T00:57:38.320Z,60.73
2023-02-07T00:58:10.623Z,61.13
2023-02-07T00:58:42.945Z,57.77
2023-02-07T00:59:15.269Z,58.50
2023-02-07T00:59:47.561Z,60.10
2023-02-07T01:00:19.994Z,60.03
2023-02-07T01:00:52.785Z,59.77
2023-02-07T01:01:25.580Z,56.00
2023-02-07T01:01:57.864Z,57.53
2023-02-07T01:02:30.140Z,59.20
2023-02-07T01:03:02.592Z,59.13
2023-02-07T01:03:34.874Z,58.77
2023-02-07T01:04:07.223Z,60.10
2023-02-07T01:04:39.633Z,59.67
2023-02-07T01:05:12.006Z,57.40
2023-02-07T01:05:45.845Z,56.73
2023-02-07T01:06:18.224Z,55.93
2023-02-07T01:06:50.510Z,58.00
2023-02-07T01:07:22.973Z,58.50
2023-02-07T01:07:55.321Z,59.00
2023-02-07T01:08:27.784Z,58.30
2023-02-07T01:09:01.916Z,56.07
2023-02-07T01:09:34.329Z,58.33
2023-02-07T01:10:07.025Z,58.10
2023-02-07T01:10:41.482Z,56.23
2023-02-07T01:11:16.623Z,56.50
2023-02-07T01:11:49.033Z,58.77
2023-02-07T01:12:21.370Z,57.90
2023-02-07T01:12:53.679Z,58.00
2023-02-07T01:13:26.008Z,56.40
2023-02-07T01:14:00.904Z,56.93
2023-02-07T01:14:33.207Z,56.30
2023-02-07T01:15:07.361Z,55.53
2023-02-07T01:15:42.832Z,57.03
2023-02-07T01:16:56.935Z,60.73
2023-02-07T01:17:29.415Z,57.70
2023-02-07T01:18:01.713Z,56.33
2023-02-07T01:18:34.010Z,56.73
2023-02-07T01:19:08.967Z,56.50
2023-02-07T01:19:41.255Z,56.20
2023-02-07T01:20:13.837Z,56.60
2023-02-07T01:20:46.284Z,57.30
2023-02-07T01:21:24.690Z,56.07
2023-02-07T01:21:59.270Z,57.63
2023-02-07T01:22:31.580Z,58.90
2023-02-07T01:23:05.619Z,60.00
2023-02-07T01:23:37.893Z,59.20
2023-02-07T01:24:10.539Z,58.63
2023-02-07T01:24:42.972Z,57.23
2023-02-07T01:25:15.335Z,57.30
2023-02-07T01:25:47.651Z,58.70
2023-02-07T01:26:19.945Z,58.87
2023-02-07T01:26:52.225Z,59.63
2023-02-07T01:27:24.872Z,56.20
2023-02-07T01:27:57.271Z,57.53
2023-02-07T01:28:29.853Z,59.63
2023-02-07T01:29:02.596Z,59.83
2023-02-07T01:29:34.884Z,58.47
2023-02-07T01:30:07.578Z,57.07
2023-02-07T01:30:41.625Z,57.70
2023-02-07T01:31:14.404Z,57.63
2023-02-07T01:31:46.813Z,56.50
2023-02-07T01:32:19.151Z,58.53
2023-02-07T01:32:51.500Z,60.97
2023-02-07T01:33:23.814Z,60.43
2023-02-07T01:33:58.430Z,59.00
2023-02-07T01:34:30.774Z,56.00
2023-02-07T01:35:03.273Z,56.83
2023-02-07T01:35:37.833Z,58.87
2023-02-07T01:36:13.482Z,59.67
2023-02-07T01:36:45.951Z,58.90
2023-02-07T01:37:18.272Z,57.60
2023-02-07T01:37:50.573Z,58.43
2023-02-07T01:38:22.870Z,59.93
2023-02-07T01:38:56.034Z,58.30
2023-02-07T01:39:28.450Z,56.37
2023-02-07T01:40:01.002Z,59.30
2023-02-07T01:40:38.051Z,57.93
2023-02-07T01:41:12.956Z,58.97
2023-02-07T01:41:45.275Z,58.00
2023-02-07T01:42:18.259Z,59.23
2023-02-07T01:42:50.605Z,56.93
2023-02-07T01:43:25.352Z,57.97
2023-02-07T01:44:02.159Z,56.80
2023-02-07T01:44:37.134Z,58.87
2023-02-07T01:45:23.647Z,58.20
2023-02-07T01:45:56.054Z,59.00
2023-02-07T01:46:30.120Z,59.07
2023-02-07T01:47:02.806Z,57.50
2023-02-07T01:47:37.529Z,57.30
2023-02-07T01:48:19.342Z,58.10
2023-02-07T01:48:53.090Z,59.67
2023-02-07T01:49:29.472Z,60.00
2023-02-07T01:50:02.801Z,60.17
2023-02-07T01:50:36.456Z,58.33
2023-02-07T01:51:08.816Z,57.00
2023-02-07T01:51:52.400Z,56.17
2023-02-07T01:52:40.588Z,58.80
2023-02-07T01:53:16.095Z,58.10
2023-02-07T01:53:49.215Z,58.30
2023-02-07T01:54:23.239Z,59.17
2023-02-07T01:55:00.040Z,59.77
2023-02-07T01:55:37.425Z,57.60
2023-02-07T01:56:22.727Z,59.70
2023-02-07T01:57:07.218Z,60.07
2023-02-07T01:57:40.015Z,59.60
2023-02-07T01:58:12.820Z,59.83
2023-02-07T01:58:45.453Z,58.53
2023-02-07T01:59:18.084Z,57.57
2023-02-07T01:59:53.802Z,58.10
2023-02-07T02:00:26.588Z,58.03
2023-02-07T02:01:00.090Z,59.30
2023-02-07T02:01:32.758Z,59.43
2023-02-07T02:02:05.902Z,61.50
2023-02-07T02:02:38.760Z,58.90
2023-02-07T02:03:11.809Z,56.70
2023-02-07T02:03:49.299Z,57.47
2023-02-07T02:04:21.654Z,56.77
2023-02-07T02:04:55.664Z,56.50
2023-02-07T02:05:31.031Z,56.17
2023-02-07T02:06:03.563Z,55.23
2023-02-07T02:06:36.565Z,58.40
2023-02-07T02:07:13.530Z,59.07
2023-02-07T02:07:45.902Z,59.07
2023-02-07T02:08:18.185Z,60.37
2023-02-07T02:08:55.121Z,58.27
2023-02-07T02:09:27.545Z,58.87
2023-02-07T02:10:00.711Z,59.80
2023-02-07T02:11:02.713Z,58.03
2023-02-07T02:11:52.987Z,58.60
2023-02-07T02:12:57.593Z,55.73
2023-02-07T02:13:40.649Z,58.77
2023-02-07T02:14:50.120Z,57.50
2023-02-07T02:15:44.528Z,57.60
2023-02-07T02:16:36.431Z,56.70
2023-02-07T02:17:30.050Z,59.20
2023-02-07T02:18:05.207Z,60.03
2023-02-07T02:18:48.087Z,59.27
2023-02-07T02:19:38.587Z,59.67
2023-02-07T02:20:22.664Z,59.07
2023-02-07T02:21:19.354Z,58.83
2023-02-07T02:22:09.843Z,59.53
2023-02-07T02:22:48.022Z,58.80
2023-02-07T02:23:42.109Z,58.53
2023-02-07T02:24:20.107Z,59.27
2023-02-07T02:25:29.380Z,58.87
2023-02-07T02:26:24.251Z,62.10
2023-02-07T02:27:17.389Z,59.27
2023-02-07T02:27:55.675Z,60.30
2023-02-07T02:28:30.640Z,62.53
2023-02-07T02:29:12.164Z,62.67
2023-02-07T02:30:10.392Z,63.80
2023-02-07T02:31:00.738Z,60.67
2023-02-07T02:31:39.044Z,60.33
2023-02-07T02:32:48.087Z,59.47
2023-02-07T02:33:27.390Z,60.43
2023-02-07T02:34:20.879Z,57.40
2023-02-07T02:35:13.196Z,58.17
2023-02-07T02:35:52.086Z,58.37
2023-02-07T02:36:41.824Z,57.30
2023-02-07T02:37:56.294Z,57.60
2023-02-07T02:38:38.932Z,61.13
2023-02-07T02:39:29.105Z,59.67
2023-02-07T02:40:26.329Z,60.63
2023-02-07T02:41:10.719Z,60.83
2023-02-07T02:42:18.235Z,58.10
2023-02-07T02:43:30.086Z,60.33
2023-02-07T02:44:20.554Z,59.20
2023-02-07T02:45:01.228Z,62.93
2023-02-07T02:45:51.884Z,63.37
2023-02-07T02:46:31.031Z,60.73
2023-02-07T02:47:04.717Z,60.57
2023-02-07T02:47:41.653Z,60.80
2023-02-07T02:48:14.142Z,61.70
2023-02-07T02:48:46.615Z,61.00
2023-02-07T02:49:20.322Z,59.47
2023-02-07T02:49:52.793Z,60.63
2023-02-07T02:50:28.961Z,61.03
2023-02-07T02:51:01.715Z,60.40
2023-02-07T02:51:34.068Z,60.37
2023-02-07T02:52:06.958Z,62.67
2023-02-07T02:52:50.200Z,65.33
2023-02-07T02:53:23.772Z,63.63
2023-02-07T02:53:58.387Z,64.17
2023-02-07T02:54:33.469Z,62.63
2023-02-07T02:55:06.059Z,61.10
2023-02-07T02:56:26.318Z,59.43
2023-02-07T02:57:27.497Z,60.03
2023-02-07T02:58:12.637Z,59.00
2023-02-07T02:58:50.922Z,58.90
2023-02-07T02:59:47.252Z,60.87
2023-02-07T03:00:56.690Z,61.43
2023-02-07T03:02:01.145Z,61.27
2023-02-07T03:02:58.552Z,63.37
2023-02-07T03:03:46.869Z,62.90
2023-02-07T03:05:21.859Z,62.10
2023-02-07T03:06:17.034Z,62.93
2023-02-07T03:07:28.342Z,64.13
2023-02-07T03:08:23.316Z,63.00
2023-02-07T03:09:27.816Z,60.97
2023-02-07T03:10:05.927Z,59.90
2023-02-07T03:11:04.561Z,61.17
2023-02-07T03:11:51.113Z,63.13
2023-02-07T03:12:32.304Z,60.87
2023-02-07T03:13:23.656Z,62.87
2023-02-07T03:14:20.125Z,61.80
2023-02-07T03:15:01.883Z,60.47
2023-02-07T03:15:53.598Z,63.10
2023-02-07T03:16:48.325Z,64.90
2023-02-07T03:17:31.187Z,64.60
2023-02-07T03:18:10.310Z,64.80
2023-02-07T03:18:51.301Z,60.70
2023-02-07T03:19:31.098Z,67.07
2023-02-07T03:20:14.682Z,64.60
2023-02-07T03:21:03.369Z,62.30
2023-02-07T03:21:46.615Z,64.03
2023-02-07T03:22:24.483Z,65.00
2023-02-07T03:23:02.668Z,64.00
2023-02-07T03:23:37.384Z,63.70
2023-02-07T03:24:17.553Z,66.07
2023-02-07T03:24:58.115Z,65.30
2023-02-07T03:25:32.320Z,62.53
2023-02-07T03:26:08.858Z,63.80
2023-02-07T03:26:44.829Z,61.80
2023-02-07T03:27:20.099Z,64.07
2023-02-07T03:27:55.877Z,63.80
2023-02-07T03:28:31.555Z,62.30
2023-02-07T03:29:06.574Z,65.33
2023-02-07T03:29:43.201Z,64.53
2023-02-07T03:30:21.258Z,61.33
2023-02-07T03:30:56.948Z,60.77
2023-02-07T03:31:32.075Z,63.57
2023-02-07T03:32:08.181Z,62.77
2023-02-07T03:32:45.022Z,62.60
2023-02-07T03:33:19.092Z,64.50
2023-02-07T03:33:59.170Z,66.63
2023-02-07T03:34:42.532Z,62.80
2023-02-07T03:35:19.037Z,63.30
2023-02-07T03:35:58.770Z,61.57
2023-02-07T03:37:04.975Z,64.27
2023-02-07T03:37:48.235Z,63.80
2023-02-07T03:38:20.871Z,62.77
2023-02-07T03:38:53.509Z,64.30
2023-02-07T03:39:26.552Z,62.93
2023-02-07T03:39:59.043Z,64.20
2023-02-07T03:40:38.412Z,64.20
2023-02-07T03:41:18.487Z,61.57
2023-02-07T03:41:59.827Z,63.13
2023-02-07T03:42:59.783Z,65.33
2023-02-07T03:43:35.173Z,65.40
2023-02-07T03:44:11.430Z,64.90
2023-02-07T03:44:46.651Z,65.40
2023-02-07T03:45:21.358Z,65.90
2023-02-07T03:45:53.792Z,65.37
2023-02-07T03:46:26.473Z,66.33
2023-02-07T03:46:59.709Z,68.50
2023-02-07T03:47:32.508Z,66.30
2023-02-07T03:48:04.936Z,65.60
2023-02-07T03:48:37.298Z,64.43
2023-02-07T03:49:09.706Z,64.07
2023-02-07T03:49:42.008Z,66.33
2023-02-07T03:50:15.299Z,66.63
2023-02-07T03:50:49.969Z,66.33
2023-02-07T03:51:22.246Z,64.03
2023-02-07T03:51:54.562Z,63.00
2023-02-07T03:52:26.861Z,63.83
2023-02-07T03:52:59.266Z,65.83
2023-02-07T03:53:31.656Z,65.10
2023-02-07T03:54:04.286Z,66.13
2023-02-07T03:54:36.667Z,66.63
2023-02-07T03:55:09.989Z,64.77
2023-02-07T03:55:42.310Z,65.70
2023-02-07T03:56:14.614Z,62.37
2023-02-07T03:56:46.940Z,62.93
2023-02-07T03:57:19.233Z,61.77
2023-02-07T03:57:51.610Z,62.27
2023-02-07T03:58:23.970Z,63.33
2023-02-07T03:58:56.268Z,63.00
2023-02-07T03:59:29.858Z,64.13
2023-02-07T04:00:02.896Z,64.93
2023-02-07T04:00:36.529Z,63.87
2023-02-07T04:01:08.975Z,64.67
2023-02-07T04:01:42.712Z,66.53
2023-02-07T04:02:15.156Z,67.47
2023-02-07T04:02:47.508Z,68.63
2023-02-07T04:03:19.788Z,67.33
2023-02-07T04:03:52.177Z,66.63
2023-02-07T04:04:24.682Z,67.83
2023-02-07T04:04:57.036Z,66.57
2023-02-07T04:05:29.393Z,65.30
2023-02-07T04:06:01.761Z,66.27
2023-02-07T04:06:34.087Z,69.00
2023-02-07T04:07:06.971Z,68.77
2023-02-07T04:07:39.275Z,68.50
2023-02-07T04:08:12.155Z,69.10
2023-02-07T04:08:44.517Z,70.00
2023-02-07T04:09:16.856Z,70.03
2023-02-07T04:09:49.234Z,66.00
2023-02-07T04:10:21.610Z,68.13
2023-02-07T04:11:01.490Z,70.13
2023-02-07T04:11:33.861Z,65.13
2023-02-07T04:12:06.247Z,64.97
2023-02-07T04:12:38.546Z,67.40
2023-02-07T04:13:10.864Z,67.07
2023-02-07T04:13:43.421Z,67.83
2023-02-07T04:14:16.143Z,66.97
2023-02-07T04:14:48.512Z,67.03
2023-02-07T04:15:20.887Z,67.53
2023-02-07T04:15:53.262Z,64.13
2023-02-07T04:16:26.056Z,64.70
2023-02-07T04:16:58.371Z,66.87
2023-02-07T04:17:31.581Z,68.67
2023-02-07T04:18:04.092Z,65.73
2023-02-07T04:18:36.390Z,65.10
2023-02-07T04:19:08.786Z,67.90
2023-02-07T04:19:41.183Z,66.33
2023-02-07T04:20:13.571Z,68.37
2023-02-07T04:20:46.772Z,68.23
2023-02-07T04:21:19.151Z,66.43
2023-02-07T04:21:51.565Z,66.33
2023-02-07T04:22:23.930Z,67.13
2023-02-07T04:22:56.229Z,66.47
2023-02-07T04:23:29.188Z,65.23
2023-02-07T04:24:01.480Z,67.53
2023-02-07T04:24:35.894Z,68.57
2023-02-07T04:25:08.474Z,65.90
2023-02-07T04:25:40.921Z,64.37
2023-02-07T04:26:13.296Z,65.10
2023-02-07T04:26:45.693Z,65.37
2023-02-07T04:27:18.013Z,64.63
2023-02-07T04:27:50.384Z,64.07
2023-02-07T04:28:23.122Z,65.50
2023-02-07T04:28:55.538Z,63.93
2023-02-07T04:29:27.854Z,62.00
2023-02-07T04:30:00.225Z,66.03
2023-02-07T04:30:33.642Z,67.60
2023-02-07T04:31:06.054Z,65.63
2023-02-07T04:31:38.409Z,67.40
2023-02-07T04:32:11.093Z,67.37
2023-02-07T04:32:43.483Z,69.80
2023-02-07T04:33:15.978Z,65.67
2023-02-07T04:33:48.967Z,68.07
2023-02-07T04:34:21.329Z,69.10
2023-02-07T04:34:53.649Z,66.00
2023-02-07T04:35:25.994Z,62.10
2023-02-07T04:36:00.890Z,63.67
2023-02-07T04:36:33.268Z,68.90
2023-02-07T04:37:05.700Z,65.30
2023-02-07T04:37:38.116Z,65.50
2023-02-07T04:38:10.473Z,67.10
2023-02-07T04:38:42.856Z,66.97
2023-02-07T04:39:15.248Z,67.50
2023-02-07T04:39:47.730Z,66.13
2023-02-07T04:40:20.159Z,62.93
2023-02-07T04:40:52.785Z,64.30
2023-02-07T04:41:25.199Z,67.97
2023-02-07T04:41:57.488Z,66.37
2023-02-07T04:42:29.795Z,67.20
2023-02-07T04:43:02.097Z,66.20
2023-02-07T04:43:37.422Z,65.63
2023-02-07T04:44:09.745Z,65.63
2023-02-07T04:44:42.017Z,66.87
2023-02-07T04:45:14.404Z,67.10
2023-02-07T04:45:48.146Z,64.53
2023-02-07T04:46:20.470Z,69.67
2023-02-07T04:46:52.769Z,68.70
2023-02-07T04:47:25.234Z,69.17
2023-02-07T04:47:57.500Z,71.73
2023-02-07T04:48:29.878Z,74.83
2023-02-07T04:49:02.345Z,79.57
2023-02-07T04:49:34.892Z,114.20
2023-02-07T04:50:07.496Z,145.20
2023-02-07T04:50:39.842Z,141.07
2023-02-07T04:51:12.486Z,131.27
2023-02-07T04:51:44.904Z,127.00
2023-02-07T04:52:17.234Z,129.70
2023-02-07T04:52:49.593Z,114.57
2023-02-07T04:53:21.950Z,88.30
2023-02-07T04:53:54.307Z,69.90
2023-02-07T04:54:26.684Z,67.20
2023-02-07T04:54:59.106Z,69.63
2023-02-07T04:55:31.632Z,67.13
2023-02-07T04:56:04.190Z,68.90
2023-02-07T04:56:36.582Z,67.27
2023-02-07T04:57:09.039Z,69.80
2023-02-07T04:57:41.398Z,70.77
2023-02-07T04:58:13.735Z,81.73
2023-02-07T04:58:46.054Z,99.87
2023-02-07T04:59:18.386Z,108.23
2023-02-07T04:59:50.660Z,107.60
2023-02-07T05:00:22.953Z,102.97
2023-02-07T05:00:55.419Z,98.57
2023-02-07T05:01:27.750Z,96.37
2023-02-07T05:02:00.284Z,89.47
2023-02-07T05:02:32.718Z,85.03
2023-02-07T05:03:05.115Z,86.53
2023-02-07T05:03:37.437Z,85.77
2023-02-07T05:04:09.781Z,84.20
2023-02-07T05:04:42.117Z,81.03
2023-02-07T05:05:14.468Z,78.40
2023-02-07T05:05:46.797Z,81.13
2023-02-07T05:06:19.104Z,79.47
2023-02-07T05:06:51.423Z,77.43
2023-02-07T05:07:23.809Z,77.13
2023-02-07T05:07:56.103Z,75.10
2023-02-07T05:08:28.407Z,76.83
2023-02-07T05:09:00.791Z,78.13
2023-02-07T05:09:33.124Z,78.30
2023-02-07T05:10:05.816Z,77.27
2023-02-07T05:10:39.259Z,78.27
2023-02-07T05:11:11.662Z,74.93
2023-02-07T05:11:43.966Z,77.17
2023-02-07T05:12:16.244Z,76.33
2023-02-07T05:12:48.747Z,74.83
2023-02-07T05:13:22.008Z,75.00
2023-02-07T05:13:54.323Z,75.87
2023-02-07T05:14:26.630Z,83.00
2023-02-07T05:14:59.339Z,90.53
2023-02-07T05:15:31.987Z,94.77
2023-02-07T05:16:05.209Z,96.13
2023-02-07T05:16:37.793Z,91.83
2023-02-07T05:17:11.192Z,86.27
2023-02-07T05:17:43.530Z,84.30
2023-02-07T05:18:16.361Z,86.50
2023-02-07T05:18:48.637Z,83.90
2023-02-07T05:19:21.146Z,89.90
2023-02-07T05:19:53.460Z,86.20
2023-02-07T05:20:26.117Z,85.63
2023-02-07T05:20:59.156Z,79.83
2023-02-07T05:21:31.570Z,78.00
2023-02-07T05:22:04.027Z,90.23
2023-02-07T05:22:36.333Z,93.83
2023-02-07T05:23:08.838Z,83.97
2023-02-07T05:23:41.230Z,87.57
2023-02-07T05:24:13.599Z,94.23
2023-02-07T05:24:45.911Z,95.47
2023-02-07T05:25:18.450Z,96.17
2023-02-07T05:25:50.879Z,94.73
2023-02-07T05:26:23.260Z,90.57
2023-02-07T05:26:55.536Z,93.30
2023-02-07T05:27:27.813Z,93.00
2023-02-07T05:28:00.369Z,96.93
2023-02-07T05:28:32.722Z,95.17
2023-02-07T05:29:07.261Z,100.23
2023-02-07T05:29:39.670Z,105.47
2023-02-07T05:30:12.525Z,119.00
2023-02-07T05:30:44.997Z,121.13
2023-02-07T05:31:17.557Z,118.67
2023-02-07T05:32:08.390Z,110.60
2023-02-07T05:32:59.453Z,110.60
2023-02-07T05:33:31.792Z,107.17
2023-02-07T05:34:04.206Z,108.87
2023-02-07T05:34:37.101Z,106.27
2023-02-07T05:35:09.659Z,100.97
2023-02-07T05:35:44.675Z,102.73
2023-02-07T05:36:17.002Z,100.27
2023-02-07T05:36:49.348Z,97.80
2023-02-07T05:37:21.744Z,96.73
2023-02-07T05:37:54.071Z,91.50
2023-02-07T05:38:26.491Z,85.97
2023-02-07T05:38:58.802Z,87.83
2023-02-07T05:39:31.074Z,85.93
2023-02-07T05:40:04.208Z,82.30
2023-02-07T05:40:38.353Z,86.57
2023-02-07T05:41:10.662Z,89.37
2023-02-07T05:41:42.967Z,89.17
2023-02-07T05:42:15.518Z,84.57
2023-02-07T05:42:47.834Z,84.43
2023-02-07T05:43:20.239Z,84.37
2023-02-07T05:43:52.579Z,87.27
2023-02-07T05:44:24.902Z,90.70
2023-02-07T05:44:57.222Z,88.13
2023-02-07T05:45:29.570Z,86.27
2023-02-07T05:46:01.930Z,86.23
2023-02-07T05:46:34.331Z,88.27
2023-02-07T05:47:06.670Z,86.67
2023-02-07T05:47:39.043Z,85.90
2023-02-07T05:48:12.505Z,78.10
2023-02-07T05:48:45.028Z,73.67
2023-02-07T05:49:17.325Z,75.73
2023-02-07T05:49:49.683Z,75.67
2023-02-07T05:50:22.129Z,75.47
2023-02-07T05:50:54.404Z,73.03
2023-02-07T05:51:26.753Z,78.30
2023-02-07T05:51:59.028Z,85.47
2023-02-07T05:52:32.960Z,87.67
2023-02-07T05:53:08.268Z,89.83
2023-02-07T05:53:40.684Z,88.73
2023-02-07T05:54:12.959Z,83.83
2023-02-07T05:54:45.247Z,78.97
2023-02-07T05:55:17.699Z,77.67
2023-02-07T05:55:52.094Z,76.33
2023-02-07T05:56:24.408Z,77.87
2023-02-07T05:56:56.801Z,79.00
2023-02-07T05:57:29.129Z,77.77
2023-02-07T05:58:01.598Z,76.50
2023-02-07T05:58:33.992Z,74.80
2023-02-07T05:59:06.309Z,72.77
2023-02-07T05:59:38.663Z,76.60
2023-02-07T06:00:14.750Z,79.67
2023-02-07T06:00:48.910Z,78.33
2023-02-07T06:01:21.213Z,77.27
2023-02-07T06:01:53.523Z,77.33
2023-02-07T06:02:25.895Z,76.33
2023-02-07T06:02:58.200Z,79.23
2023-02-07T06:03:30.548Z,78.80
2023-02-07T06:04:02.839Z,77.93
2023-02-07T06:04:35.279Z,77.63
2023-02-07T06:05:14.723Z,79.37
2023-02-07T06:05:47.366Z,79.80
2023-02-07T06:06:19.692Z,80.47
2023-02-07T06:06:51.963Z,82.33
2023-02-07T06:07:24.285Z,78.60
2023-02-07T06:07:56.597Z,76.60
2023-02-07T06:08:28.892Z,78.53
2023-02-07T06:09:01.275Z,75.57
2023-02-07T06:09:33.726Z,72.23
2023-02-07T06:10:07.553Z,75.50
2023-02-07T06:10:40.196Z,76.00
2023-02-07T06:11:12.508Z,76.70
2023-02-07T06:11:44.810Z,79.87
2023-02-07T06:12:17.151Z,79.40
2023-02-07T06:12:49.419Z,81.00
2023-02-07T06:13:21.872Z,79.80
2023-02-07T06:13:54.155Z,79.13
2023-02-07T06:14:26.525Z,82.87
2023-02-07T06:14:58.857Z,80.17
2023-02-07T06:15:31.331Z,77.93
2023-02-07T06:16:03.760Z,76.10
2023-02-07T06:16:36.163Z,74.73
2023-02-07T06:17:08.435Z,76.33
2023-02-07T06:17:40.774Z,75.13
2023-02-07T06:18:13.047Z,74.50
2023-02-07T06:18:45.398Z,74.07
2023-02-07T06:19:17.718Z,73.33
2023-02-07T06:19:52.699Z,72.87
2023-02-07T06:20:25.902Z,72.70
2023-02-07T06:20:58.212Z,75.20
2023-02-07T06:21:45.468Z,77.40
2023-02-07T06:22:18.989Z,77.47
2023-02-07T06:22:52.443Z,76.57
2023-02-07T06:23:24.776Z,76.30
2023-02-07T06:23:57.072Z,77.60
2023-02-07T06:24:29.373Z,77.67
2023-02-07T06:25:02.084Z,78.00
2023-02-07T06:25:34.362Z,81.03
2023-02-07T06:26:06.877Z,85.60
2023-02-07T06:26:39.195Z,93.20
2023-02-07T06:27:11.797Z,93.80
2023-02-07T06:27:44.127Z,90.83
2023-02-07T06:28:16.479Z,87.07
2023-02-07T06:28:48.904Z,86.07
2023-02-07T06:29:21.250Z,89.57
2023-02-07T06:29:53.643Z,95.33
2023-02-07T06:30:25.972Z,92.77
2023-02-07T06:30:58.414Z,94.90
2023-02-07T06:31:30.947Z,96.27
2023-02-07T06:32:03.595Z,94.70
2023-02-07T06:32:36.031Z,97.77
2023-02-07T06:33:08.323Z,95.87
2023-02-07T06:33:40.760Z,86.80
2023-02-07T06:34:13.110Z,82.90
2023-02-07T06:34:45.429Z,84.07
2023-02-07T06:35:17.723Z,82.47
2023-02-07T06:35:50.067Z,83.20
2023-02-07T06:36:22.346Z,85.23
2023-02-07T06:36:54.714Z,82.30
2023-02-07T06:37:27.017Z,82.83
2023-02-07T06:37:59.386Z,81.37
2023-02-07T06:38:31.772Z,81.97
2023-02-07T06:39:04.298Z,82.53
2023-02-07T06:39:36.620Z,81.50
2023-02-07T06:40:09.378Z,81.07
2023-02-07T06:40:41.686Z,83.57
2023-02-07T06:41:14.046Z,82.23
2023-02-07T06:41:46.313Z,80.87
2023-02-07T06:42:18.794Z,82.73
2023-02-07T06:42:51.109Z,82.20
2023-02-07T06:43:23.495Z,79.57
2023-02-07T06:43:55.771Z,83.27
2023-02-07T06:44:28.054Z,155.50
2023-02-07T06:45:00.398Z,103.70
2023-02-07T06:45:32.676Z,83.77
2023-02-07T06:46:05.415Z,84.63
2023-02-07T06:46:37.922Z,86.90
2023-02-07T06:47:10.254Z,86.03
2023-02-07T06:47:42.622Z,86.67
2023-02-07T06:48:14.936Z,82.10
2023-02-07T06:48:47.268Z,82.40
2023-02-07T06:49:19.572Z,84.17
2023-02-07T06:49:52.930Z,83.23
2023-02-07T06:50:25.226Z,79.03
2023-02-07T06:50:57.633Z,76.73
2023-02-07T06:51:30.392Z,79.07
2023-02-07T06:52:02.900Z,78.23
2023-02-07T06:52:35.204Z,81.50
2023-02-07T06:53:07.538Z,80.53
2023-02-07T06:53:39.962Z,78.07
2023-02-07T06:54:12.334Z,78.70
2023-02-07T06:54:44.656Z,79.40
2023-02-07T06:55:17.174Z,76.60
2023-02-07T06:55:50.027Z,78.70
2023-02-07T06:56:22.501Z,79.43
2023-02-07T06:56:55.146Z,80.50
2023-02-07T06:57:30.088Z,79.10
2023-02-07T06:58:02.409Z,81.13
2023-02-07T06:58:35.122Z,79.87
2023-02-07T06:59:07.472Z,77.40
2023-02-07T06:59:39.789Z,77.90
2023-02-07T07:00:12.556Z,77.57
2023-02-07T07:00:44.901Z,75.30
2023-02-07T07:01:20.292Z,74.97
2023-02-07T07:01:54.959Z,76.43
2023-02-07T07:02:27.437Z,73.23
2023-02-07T07:03:00.586Z,74.03
2023-02-07T07:03:36.102Z,75.80
2023-02-07T07:04:08.521Z,72.97
2023-02-07T07:04:40.954Z,72.30
2023-02-07T07:05:14.936Z,71.80
2023-02-07T07:05:50.115Z,72.37
2023-02-07T07:06:22.879Z,71.00
2023-02-07T07:06:55.435Z,71.37
2023-02-07T07:07:28.350Z,71.27
2023-02-07T07:08:00.740Z,72.73
2023-02-07T07:08:33.161Z,75.00
2023-02-07T07:09:05.902Z,75.73
2023-02-07T07:09:38.379Z,79.13
2023-02-07T07:10:11.346Z,85.07
2023-02-07T07:10:44.831Z,82.97
2023-02-07T07:11:17.400Z,81.50
2023-02-07T07:11:49.706Z,83.73
2023-02-07T07:12:22.057Z,84.37
2023-02-07T07:12:54.391Z,85.30
2023-02-07T07:13:26.663Z,85.80
2023-02-07T07:14:00.638Z,93.60
2023-02-07T07:14:33.053Z,133.67
2023-02-07T07:15:05.800Z,106.90
2023-02-07T07:15:38.471Z,109.60
2023-02-07T07:16:10.973Z,218.40
2023-02-07T07:16:43.298Z,362.87
2023-02-07T07:17:15.658Z,357.67
2023-02-07T07:17:48.019Z,189.87
2023-02-07T07:18:20.464Z,223.60
2023-02-07T07:18:52.821Z,370.40
2023-02-07T07:19:25.461Z,189.07
2023-02-07T07:19:58.909Z,166.70
2023-02-07T07:20:31.502Z,154.67
2023-02-07T07:21:04.137Z,128.90
2023-02-07T07:21:37.666Z,105.37
2023-02-07T07:22:09.981Z,95.20
2023-02-07T07:22:43.209Z,92.10
2023-02-07T07:23:15.535Z,121.60
2023-02-07T07:23:47.981Z,139.57
2023-02-07T07:24:21.303Z,145.73
2023-02-07T07:24:53.687Z,154.13
2023-02-07T07:25:26.341Z,153.37
2023-02-07T07:25:59.053Z,135.87
2023-02-07T07:26:47.853Z,115.50
2023-02-07T07:27:22.190Z,92.67
2023-02-07T07:27:54.671Z,89.33
2023-02-07T07:28:32.878Z,96.83
2023-02-07T07:29:07.181Z,100.23
2023-02-07T07:29:39.625Z,129.73
2023-02-07T07:30:15.061Z,105.43
2023-02-07T07:30:47.549Z,98.90
2023-02-07T07:31:19.934Z,100.13
2023-02-07T07:31:57.301Z,105.70
2023-02-07T07:32:34.285Z,111.23